sensor_id;sensor_type;location;lat;lon;timestamp;pressure;altitude;pressure_sealevel;temperature;humidity
78170;BME280;67412;49.892;14.490;2023-10-31T00:00:18;95196.72;;;13.10;100.00
78170;BME280;67412;49.892;14.490;2023-10-31T00:02:43;95201.09;;;13.08;100.00
78170;BME280;67412;49.892;14.490;2023-10-31T00:05:08;95193.53;;;13.05;100.00
78170;BME280;67412;49.892;14.490;2023-10-31T00:07:34;95187.66;;;13.03;100.00
78170;BME280;67412;49.892;14.490;2023-10-31T00:09:59;95193.53;;;13.05;100.00
78170;BME280;67412;49.892;14.490;2023-10-31T00:12:24;95198.78;;;13.03;100.00
78170;BME280;67412;49.892;14.490;2023-10-31T00:14:50;95201.25;;;13.05;100.00
78170;BME280;67412;49.892;14.490;2023-10-31T00:17:15;95200.78;;;13.14;100.00
78170;BME280;67412;49.892;14.490;2023-10-31T00:19:40;95196.44;;;13.15;100.00
78170;BME280;67412;49.892;14.490;2023-10-31T00:22:05;95200.84;;;13.13;100.00
78170;BME280;67412;49.892;14.490;2023-10-31T00:24:31;95196.53;;;13.13;100.00
78170;BME280;67412;49.892;14.490;2023-10-31T00:26:57;95197.09;;;13.18;100.00
78170;BME280;67412;49.892;14.490;2023-10-31T00:29:23;95196.28;;;13.18;100.00
78170;BME280;67412;49.892;14.490;2023-10-31T00:31:48;95204.84;;;13.18;100.00
78170;BME280;67412;49.892;14.490;2023-10-31T00:34:13;95204.06;;;13.16;100.00
78170;BME280;67412;49.892;14.490;2023-10-31T00:36:39;95199.28;;;13.10;100.00
78170;BME280;67412;49.892;14.490;2023-10-31T00:39:04;95200.84;;;13.13;100.00
78170;BME280;67412;49.892;14.490;2023-10-31T00:41:30;95191.38;;;13.13;100.00
78170;BME280;67412;49.892;14.490;2023-10-31T00:43:55;95192.78;;;13.19;100.00
78170;BME280;67412;49.892;14.490;2023-10-31T00:46:20;95190.28;;;13.17;100.00
78170;BME280;67412;49.892;14.490;2023-10-31T00:48:46;95188.91;;;13.12;100.00
78170;BME280;67412;49.892;14.490;2023-10-31T00:51:11;95191.59;;;13.08;100.00
78170;BME280;67412;49.892;14.490;2023-10-31T00:53:37;95198.78;;;13.19;100.00
78170;BME280;67412;49.892;14.490;2023-10-31T00:56:02;95220.19;;;13.49;100.00
78170;BME280;67412;49.892;14.490;2023-10-31T00:58:28;95245.53;;;13.57;98.56
78170;BME280;67412;49.892;14.490;2023-10-31T01:00:53;95248.13;;;13.27;99.63
78170;BME280;67412;49.892;14.490;2023-10-31T01:03:18;95252.81;;;13.05;100.00
78170;BME280;67412;49.892;14.490;2023-10-31T01:05:43;95248.94;;;12.98;100.00
78170;BME280;67412;49.892;14.490;2023-10-31T01:08:09;95260.00;;;13.00;100.00
78170;BME280;67412;49.892;14.490;2023-10-31T01:10:34;95263.31;;;13.02;100.00
78170;BME280;67412;49.892;14.490;2023-10-31T01:12:59;95264.97;;;13.03;100.00
78170;BME280;67412;49.892;14.490;2023-10-31T01:15:25;95272.72;;;13.03;100.00
78170;BME280;67412;49.892;14.490;2023-10-31T01:17:50;95274.19;;;13.07;100.00
78170;BME280;67412;49.892;14.490;2023-10-31T01:20:15;95272.22;;;13.12;100.00
78170;BME280;67412;49.892;14.490;2023-10-31T01:22:41;95262.00;;;13.11;100.00
78170;BME280;67412;49.892;14.490;2023-10-31T01:25:06;95259.16;;;13.15;100.00
78170;BME280;67412;49.892;14.490;2023-10-31T01:27:32;95254.47;;;13.22;99.43
78170;BME280;67412;49.892;14.490;2023-10-31T01:29:57;95264.34;;;13.29;99.04
78170;BME280;67412;49.892;14.490;2023-10-31T01:32:22;95268.75;;;13.27;99.07
78170;BME280;67412;49.892;14.490;2023-10-31T01:34:48;95282.47;;;13.28;99.21
78170;BME280;67412;49.892;14.490;2023-10-31T01:37:13;95272.66;;;13.34;98.43
78170;BME280;67412;49.892;14.490;2023-10-31T01:39:39;95278.53;;;13.36;98.18
78170;BME280;67412;49.892;14.490;2023-10-31T01:42:05;95288.41;;;13.30;98.61
78170;BME280;67412;49.892;14.490;2023-10-31T01:44:30;95294.63;;;13.26;98.68
78170;BME280;67412;49.892;14.490;2023-10-31T01:46:56;95293.72;;;13.27;98.78
78170;BME280;67412;49.892;14.490;2023-10-31T01:49:21;95296.47;;;13.24;98.93
78170;BME280;67412;49.892;14.490;2023-10-31T01:51:47;95297.28;;;13.24;98.86
78170;BME280;67412;49.892;14.490;2023-10-31T01:54:13;95300.63;;;13.26;99.22
78170;BME280;67412;49.892;14.490;2023-10-31T01:56:40;95308.53;;;13.23;99.46
78170;BME280;67412;49.892;14.490;2023-10-31T01:59:06;95315.34;;;13.24;100.00
78170;BME280;67412;49.892;14.490;2023-10-31T02:01:33;95318.88;;;13.23;99.98
78170;BME280;67412;49.892;14.490;2023-10-31T02:04:01;95313.53;;;13.26;99.83
78170;BME280;67412;49.892;14.490;2023-10-31T02:06:27;95330.63;;;13.27;100.00
78170;BME280;67412;49.892;14.490;2023-10-31T02:08:55;95324.50;;;13.30;100.00
78170;BME280;67412;49.892;14.490;2023-10-31T02:11:20;95329.19;;;13.23;100.00
78170;BME280;67412;49.892;14.490;2023-10-31T02:13:45;95322.53;;;13.19;100.00
78170;BME280;67412;49.892;14.490;2023-10-31T02:16:11;95318.34;;;13.17;100.00
78170;BME280;67412;49.892;14.490;2023-10-31T02:18:36;95316.84;;;13.13;100.00
78170;BME280;67412;49.892;14.490;2023-10-31T02:21:01;95312.22;;;13.03;100.00
78170;BME280;67412;49.892;14.490;2023-10-31T02:23:27;95321.53;;;12.90;100.00
78170;BME280;67412;49.892;14.490;2023-10-31T02:25:52;95338.16;;;12.85;100.00
78170;BME280;67412;49.892;14.490;2023-10-31T02:28:18;95335.16;;;12.77;100.00
78170;BME280;67412;49.892;14.490;2023-10-31T02:30:43;95346.72;;;12.70;100.00
78170;BME280;67412;49.892;14.490;2023-10-31T02:33:08;95353.28;;;12.59;100.00
78170;BME280;67412;49.892;14.490;2023-10-31T02:35:33;95354.59;;;12.51;100.00
78170;BME280;67412;49.892;14.490;2023-10-31T02:37:59;95359.25;;;12.44;100.00
78170;BME280;67412;49.892;14.490;2023-10-31T02:40:24;95357.91;;;12.37;100.00
78170;BME280;67412;49.892;14.490;2023-10-31T02:42:50;95361.72;;;12.30;100.00
78170;BME280;67412;49.892;14.490;2023-10-31T02:45:15;95372.50;;;12.21;100.00
78170;BME280;67412;49.892;14.490;2023-10-31T02:47:41;95363.16;;;12.19;100.00
78170;BME280;67412;49.892;14.490;2023-10-31T02:50:07;95369.47;;;12.13;100.00
78170;BME280;67412;49.892;14.490;2023-10-31T02:52:32;95370.38;;;12.12;100.00
78170;BME280;67412;49.892;14.490;2023-10-31T02:54:57;95377.59;;;12.05;100.00
78170;BME280;67412;49.892;14.490;2023-10-31T02:57:23;95380.56;;;11.98;100.00
78170;BME280;67412;49.892;14.490;2023-10-31T02:59:48;95384.19;;;11.94;100.00
78170;BME280;67412;49.892;14.490;2023-10-31T03:02:13;95390.34;;;11.91;100.00
78170;BME280;67412;49.892;14.490;2023-10-31T03:04:39;95383.75;;;11.86;100.00
78170;BME280;67412;49.892;14.490;2023-10-31T03:07:04;95379.81;;;11.79;100.00
78170;BME280;67412;49.892;14.490;2023-10-31T03:09:29;95399.66;;;11.77;100.00
78170;BME280;67412;49.892;14.490;2023-10-31T03:11:55;95397.22;;;11.74;100.00
78170;BME280;67412;49.892;14.490;2023-10-31T03:14:20;95401.78;;;11.67;100.00
78170;BME280;67412;49.892;14.490;2023-10-31T03:16:45;95413.91;;;11.65;100.00
78170;BME280;67412;49.892;14.490;2023-10-31T03:19:11;95426.63;;;11.68;100.00
78170;BME280;67412;49.892;14.490;2023-10-31T03:21:36;95430.19;;;11.66;100.00
78170;BME280;67412;49.892;14.490;2023-10-31T03:24:01;95430.25;;;11.64;100.00
78170;BME280;67412;49.892;14.490;2023-10-31T03:26:27;95436.44;;;11.60;100.00
78170;BME280;67412;49.892;14.490;2023-10-31T03:28:52;95425.16;;;11.62;100.00
78170;BME280;67412;49.892;14.490;2023-10-31T03:31:22;95433.94;;;11.58;100.00
78170;BME280;67412;49.892;14.490;2023-10-31T03:33:47;95437.59;;;11.54;100.00
78170;BME280;67412;49.892;14.490;2023-10-31T03:36:13;95426.53;;;11.52;100.00
78170;BME280;67412;49.892;14.490;2023-10-31T03:38:38;95422.28;;;11.51;100.00
78170;BME280;67412;49.892;14.490;2023-10-31T03:41:03;95415.50;;;11.50;100.00
78170;BME280;67412;49.892;14.490;2023-10-31T03:43:29;95413.28;;;11.43;100.00
78170;BME280;67412;49.892;14.490;2023-10-31T03:45:54;95415.78;;;11.44;100.00
78170;BME280;67412;49.892;14.490;2023-10-31T03:48:20;95418.19;;;11.47;100.00
78170;BME280;67412;49.892;14.490;2023-10-31T03:50:45;95419.13;;;11.46;100.00
78170;BME280;67412;49.892;14.490;2023-10-31T03:53:11;95421.97;;;11.40;100.00
78170;BME280;67412;49.892;14.490;2023-10-31T03:55:36;95420.00;;;11.45;100.00
78170;BME280;67412;49.892;14.490;2023-10-31T03:58:01;95419.28;;;11.43;100.00
78170;BME280;67412;49.892;14.490;2023-10-31T04:00:27;95418.44;;;11.43;100.00
78170;BME280;67412;49.892;14.490;2023-10-31T04:02:52;95423.84;;;11.37;100.00
78170;BME280;67412;49.892;14.490;2023-10-31T04:05:17;95422.13;;;11.37;100.00
78170;BME280;67412;49.892;14.490;2023-10-31T04:07:44;95428.31;;;11.33;100.00
78170;BME280;67412;49.892;14.490;2023-10-31T04:10:10;95428.16;;;11.36;100.00
78170;BME280;67412;49.892;14.490;2023-10-31T04:12:35;95433.19;;;11.39;100.00
78170;BME280;67412;49.892;14.490;2023-10-31T04:15:01;95430.66;;;11.38;100.00
78170;BME280;67412;49.892;14.490;2023-10-31T04:17:26;95438.44;;;11.36;100.00
78170;BME280;67412;49.892;14.490;2023-10-31T04:19:51;95439.56;;;11.31;100.00
78170;BME280;67412;49.892;14.490;2023-10-31T04:22:17;95435.28;;;11.31;100.00
78170;BME280;67412;49.892;14.490;2023-10-31T04:24:42;95435.13;;;11.34;100.00
78170;BME280;67412;49.892;14.490;2023-10-31T04:27:08;95440.41;;;11.31;100.00
78170;BME280;67412;49.892;14.490;2023-10-31T04:29:34;95444.78;;;11.29;100.00
78170;BME280;67412;49.892;14.490;2023-10-31T04:31:59;95437.22;;;11.26;100.00
78170;BME280;67412;49.892;14.490;2023-10-31T04:34:24;95437.38;;;11.23;100.00
78170;BME280;67412;49.892;14.490;2023-10-31T04:36:49;95438.09;;;11.25;100.00
78170;BME280;67412;49.892;14.490;2023-10-31T04:39:15;95447.59;;;11.25;100.00
78170;BME280;67412;49.892;14.490;2023-10-31T04:41:40;95452.56;;;11.28;100.00
78170;BME280;67412;49.892;14.490;2023-10-31T04:44:06;95457.03;;;11.24;100.00
78170;BME280;67412;49.892;14.490;2023-10-31T04:46:31;95454.16;;;11.30;100.00
78170;BME280;67412;49.892;14.490;2023-10-31T04:48:56;95456.94;;;11.26;100.00
78170;BME280;67412;49.892;14.490;2023-10-31T04:51:22;95447.44;;;11.28;100.00
78170;BME280;67412;49.892;14.490;2023-10-31T04:53:47;95464.38;;;11.32;100.00
78170;BME280;67412;49.892;14.490;2023-10-31T04:56:13;95468.38;;;11.37;100.00
78170;BME280;67412;49.892;14.490;2023-10-31T04:58:39;95470.91;;;11.39;100.00
78170;BME280;67412;49.892;14.490;2023-10-31T05:01:12;95476.25;;;11.34;100.00
78170;BME280;67412;49.892;14.490;2023-10-31T05:03:38;95479.72;;;11.33;100.00
78170;BME280;67412;49.892;14.490;2023-10-31T05:06:04;95479.72;;;11.33;100.00
78170;BME280;67412;49.892;14.490;2023-10-31T05:08:30;95489.31;;;11.30;100.00
78170;BME280;67412;49.892;14.490;2023-10-31T05:10:56;95487.53;;;11.32;100.00
78170;BME280;67412;49.892;14.490;2023-10-31T05:13:21;95495.28;;;11.30;100.00
78170;BME280;67412;49.892;14.490;2023-10-31T05:15:47;95491.88;;;11.30;100.00
78170;BME280;67412;49.892;14.490;2023-10-31T05:18:12;95493.41;;;11.34;100.00
78170;BME280;67412;49.892;14.490;2023-10-31T05:20:37;95496.13;;;11.31;100.00
78170;BME280;67412;49.892;14.490;2023-10-31T05:23:03;95507.09;;;11.34;100.00
78170;BME280;67412;49.892;14.490;2023-10-31T05:25:28;95509.66;;;11.34;100.00
78170;BME280;67412;49.892;14.490;2023-10-31T05:27:53;95518.91;;;11.38;100.00
78170;BME280;67412;49.892;14.490;2023-10-31T05:30:19;95514.59;;;11.39;100.00
78170;BME280;67412;49.892;14.490;2023-10-31T05:32:44;95525.72;;;11.39;100.00
78170;BME280;67412;49.892;14.490;2023-10-31T05:35:10;95530.63;;;11.44;100.00
78170;BME280;67412;49.892;14.490;2023-10-31T05:37:35;95538.69;;;11.36;100.00
78170;BME280;67412;49.892;14.490;2023-10-31T05:40:01;95536.13;;;11.36;100.00
78170;BME280;67412;49.892;14.490;2023-10-31T05:42:26;95536.13;;;11.36;100.00
78170;BME280;67412;49.892;14.490;2023-10-31T05:44:53;95552.59;;;11.32;100.00
78170;BME280;67412;49.892;14.490;2023-10-31T05:47:18;95562.63;;;11.38;100.00
78170;BME280;67412;49.892;14.490;2023-10-31T05:49:44;95560.03;;;11.38;100.00
78170;BME280;67412;49.892;14.490;2023-10-31T05:52:09;95567.63;;;11.41;100.00
78170;BME280;67412;49.892;14.490;2023-10-31T05:54:34;95571.22;;;11.37;100.00
78170;BME280;67412;49.892;14.490;2023-10-31T05:57:00;95577.25;;;11.36;100.00
78170;BME280;67412;49.892;14.490;2023-10-31T05:59:25;95574.91;;;11.32;100.00
78170;BME280;67412;49.892;14.490;2023-10-31T06:01:50;95588.59;;;11.32;100.00
78170;BME280;67412;49.892;14.490;2023-10-31T06:04:16;95598.81;;;11.34;100.00
78170;BME280;67412;49.892;14.490;2023-10-31T06:06:41;95602.22;;;11.34;100.00
78170;BME280;67412;49.892;14.490;2023-10-31T06:09:06;95611.59;;;11.35;100.00
78170;BME280;67412;49.892;14.490;2023-10-31T06:11:32;95609.16;;;11.32;100.00
78170;BME280;67412;49.892;14.490;2023-10-31T06:13:58;95610.06;;;11.31;100.00
78170;BME280;67412;49.892;14.490;2023-10-31T06:16:24;95615.22;;;11.31;100.00
78170;BME280;67412;49.892;14.490;2023-10-31T06:18:49;95625.22;;;11.37;100.00
78170;BME280;67412;49.892;14.490;2023-10-31T06:21:15;95629.66;;;11.34;100.00
78170;BME280;67412;49.892;14.490;2023-10-31T06:23:40;95640.91;;;11.31;100.00
78170;BME280;67412;49.892;14.490;2023-10-31T06:26:08;95635.63;;;11.34;100.00
78170;BME280;67412;49.892;14.490;2023-10-31T06:28:33;95644.25;;;11.33;100.00
78170;BME280;67412;49.892;14.490;2023-10-31T06:31:00;95637.38;;;11.34;100.00
78170;BME280;67412;49.892;14.490;2023-10-31T06:33:26;95635.63;;;11.34;100.00
78170;BME280;67412;49.892;14.490;2023-10-31T06:35:52;95642.31;;;11.38;100.00
78170;BME280;67412;49.892;14.490;2023-10-31T06:38:19;95642.31;;;11.38;100.00
78170;BME280;67412;49.892;14.490;2023-10-31T06:40:44;95634.59;;;11.38;100.00
78170;BME280;67412;49.892;14.490;2023-10-31T06:43:10;95635.50;;;11.37;100.00
78170;BME280;67412;49.892;14.490;2023-10-31T06:45:35;95645.03;;;11.35;100.00
78170;BME280;67412;49.892;14.490;2023-10-31T06:48:00;95656.84;;;11.39;100.00
78170;BME280;67412;49.892;14.490;2023-10-31T06:50:26;95661.91;;;11.41;100.00
78170;BME280;67412;49.892;14.490;2023-10-31T06:52:51;95658.50;;;11.40;100.00
78170;BME280;67412;49.892;14.490;2023-10-31T06:55:16;95666.28;;;11.39;100.00
78170;BME280;67412;49.892;14.490;2023-10-31T06:57:42;95662.03;;;11.38;100.00
78170;BME280;67412;49.892;14.490;2023-10-31T07:00:08;95660.50;;;11.34;100.00
78170;BME280;67412;49.892;14.490;2023-10-31T07:02:34;95679.41;;;11.33;100.00
78170;BME280;67412;49.892;14.490;2023-10-31T07:05:00;95685.38;;;11.33;100.00
78170;BME280;67412;49.892;14.490;2023-10-31T07:07:25;95682.19;;;11.28;100.00
78170;BME280;67412;49.892;14.490;2023-10-31T07:09:51;95693.28;;;11.29;100.00
78170;BME280;67412;49.892;14.490;2023-10-31T07:12:16;95697.47;;;11.31;100.00
78170;BME280;67412;49.892;14.490;2023-10-31T07:14:41;95706.66;;;11.37;100.00
78170;BME280;67412;49.892;14.490;2023-10-31T07:17:07;95706.72;;;11.35;100.00
78170;BME280;67412;49.892;14.490;2023-10-31T07:19:32;95709.91;;;11.40;100.00
78170;BME280;67412;49.892;14.490;2023-10-31T07:21:58;95697.84;;;11.42;100.00
78170;BME280;67412;49.892;14.490;2023-10-31T07:24:23;95711.53;;;11.43;100.00
78170;BME280;67412;49.892;14.490;2023-10-31T07:26:48;95724.78;;;11.34;100.00
78170;BME280;67412;49.892;14.490;2023-10-31T07:29:14;95747.88;;;11.35;100.00
78170;BME280;67412;49.892;14.490;2023-10-31T07:31:39;95752.22;;;11.33;100.00
78170;BME280;67412;49.892;14.490;2023-10-31T07:34:05;95741.09;;;11.33;100.00
78170;BME280;67412;49.892;14.490;2023-10-31T07:36:31;95739.22;;;11.36;100.00
78170;BME280;67412;49.892;14.490;2023-10-31T07:38:57;95743.81;;;11.30;100.00
78170;BME280;67412;49.892;14.490;2023-10-31T07:41:23;95754.28;;;11.25;100.00
78170;BME280;67412;49.892;14.490;2023-10-31T07:43:49;95753.00;;;11.15;100.00
78170;BME280;67412;49.892;14.490;2023-10-31T07:46:14;95736.88;;;11.11;100.00
78170;BME280;67412;49.892;14.490;2023-10-31T07:48:39;95719.84;;;11.09;100.00
78170;BME280;67412;49.892;14.490;2023-10-31T07:51:05;95708.97;;;11.02;100.00
78170;BME280;67412;49.892;14.490;2023-10-31T07:53:30;95713.47;;;10.97;100.00
78170;BME280;67412;49.892;14.490;2023-10-31T07:55:55;95729.03;;;10.94;100.00
78170;BME280;67412;49.892;14.490;2023-10-31T07:58:21;95734.16;;;10.94;100.00
78170;BME280;67412;49.892;14.490;2023-10-31T08:00:46;95723.69;;;10.99;100.00
78170;BME280;67412;49.892;14.490;2023-10-31T08:03:12;95740.28;;;11.12;100.00
78170;BME280;67412;49.892;14.490;2023-10-31T08:05:37;95735.84;;;11.15;100.00
78170;BME280;67412;49.892;14.490;2023-10-31T08:08:02;95721.69;;;11.26;100.00
78170;BME280;67412;49.892;14.490;2023-10-31T08:10:28;95703.19;;;11.38;100.00
78170;BME280;67412;49.892;14.490;2023-10-31T08:12:53;95707.59;;;11.54;100.00
78170;BME280;67412;49.892;14.490;2023-10-31T08:15:18;95731.50;;;11.77;99.99
78170;BME280;67412;49.892;14.490;2023-10-31T08:17:44;95749.41;;;11.98;97.21
78170;BME280;67412;49.892;14.490;2023-10-31T08:20:09;95772.22;;;12.06;96.30
78170;BME280;67412;49.892;14.490;2023-10-31T08:22:36;95785.25;;;12.22;97.78
78170;BME280;67412;49.892;14.490;2023-10-31T08:25:02;95802.75;;;12.14;96.91
78170;BME280;67412;49.892;14.490;2023-10-31T08:27:27;95825.78;;;11.78;92.80
78170;BME280;67412;49.892;14.490;2023-10-31T08:29:53;95845.41;;;11.58;93.87
78170;BME280;67412;49.892;14.490;2023-10-31T08:32:18;95859.38;;;11.53;96.28
78170;BME280;67412;49.892;14.490;2023-10-31T08:34:44;95867.09;;;11.53;96.44
78170;BME280;67412;49.892;14.490;2023-10-31T08:37:09;95875.25;;;11.42;92.74
78170;BME280;67412;49.892;14.490;2023-10-31T08:39:35;95869.75;;;11.30;94.03
78170;BME280;67412;49.892;14.490;2023-10-31T08:42:00;95858.94;;;11.22;92.98
78170;BME280;67412;49.892;14.490;2023-10-31T08:44:26;95860.94;;;11.15;94.53
78170;BME280;67412;49.892;14.490;2023-10-31T08:46:52;95859.22;;;11.15;93.38
78170;BME280;67412;49.892;14.490;2023-10-31T08:49:17;95868.78;;;11.12;93.06
78170;BME280;67412;49.892;14.490;2023-10-31T08:51:43;95873.25;;;11.07;94.58
78170;BME280;67412;49.892;14.490;2023-10-31T08:54:09;95885.22;;;11.08;93.93
78170;BME280;67412;49.892;14.490;2023-10-31T08:56:34;95879.28;;;11.06;92.53
78170;BME280;67412;49.892;14.490;2023-10-31T08:59:00;95885.25;;;11.06;93.02
78170;BME280;67412;49.892;14.490;2023-10-31T09:01:26;95881.84;;;11.06;91.83
78170;BME280;67412;49.892;14.490;2023-10-31T09:03:51;95880.19;;;11.05;90.21
78170;BME280;67412;49.892;14.490;2023-10-31T09:06:17;95872.09;;;11.14;90.04
78170;BME280;67412;49.892;14.490;2023-10-31T09:08:43;95874.59;;;11.17;91.37
78170;BME280;67412;49.892;14.490;2023-10-31T09:11:08;95890.06;;;11.15;89.37
78170;BME280;67412;49.892;14.490;2023-10-31T09:13:33;95890.22;;;11.11;91.41
78170;BME280;67412;49.892;14.490;2023-10-31T09:15:59;95901.47;;;11.08;91.48
78170;BME280;67412;49.892;14.490;2023-10-31T09:18:25;95905.78;;;11.08;90.01
78170;BME280;67412;49.892;14.490;2023-10-31T09:20:50;95886.09;;;11.07;89.23
78170;BME280;67412;49.892;14.490;2023-10-31T09:23:16;95886.63;;;11.15;90.36
78170;BME280;67412;49.892;14.490;2023-10-31T09:25:43;95885.56;;;11.21;89.70
78170;BME280;67412;49.892;14.490;2023-10-31T09:28:08;95879.47;;;11.23;89.32
78170;BME280;67412;49.892;14.490;2023-10-31T09:30:33;95883.72;;;11.24;89.30
78170;BME280;67412;49.892;14.490;2023-10-31T09:32:59;95884.66;;;11.22;88.80
78170;BME280;67412;49.892;14.490;2023-10-31T09:35:24;95886.38;;;11.21;89.19
78170;BME280;67412;49.892;14.490;2023-10-31T09:37:51;95890.59;;;11.24;88.77
78170;BME280;67412;49.892;14.490;2023-10-31T09:40:16;95883.00;;;11.21;88.42
78170;BME280;67412;49.892;14.490;2023-10-31T09:42:42;95876.31;;;11.17;87.44
78170;BME280;67412;49.892;14.490;2023-10-31T09:45:08;95863.06;;;11.26;88.75
78170;BME280;67412;49.892;14.490;2023-10-31T09:47:33;95859.84;;;11.42;87.53
78170;BME280;67412;49.892;14.490;2023-10-31T09:49:59;95847.06;;;11.61;87.43
78170;BME280;67412;49.892;14.490;2023-10-31T09:52:24;95843.09;;;11.74;85.89
78170;BME280;67412;49.892;14.490;2023-10-31T09:54:52;95833.63;;;11.95;86.08
78170;BME280;67412;49.892;14.490;2023-10-31T09:57:17;95842.19;;;11.95;85.00
78170;BME280;67412;49.892;14.490;2023-10-31T09:59:43;95848.78;;;12.01;85.15
78170;BME280;67412;49.892;14.490;2023-10-31T10:02:11;95842.81;;;12.00;85.63
78170;BME280;67412;49.892;14.490;2023-10-31T10:04:37;95858.53;;;11.94;84.42
78170;BME280;67412;49.892;14.490;2023-10-31T10:07:03;95860.06;;;11.78;85.85
78170;BME280;67412;49.892;14.490;2023-10-31T10:09:29;95854.03;;;11.79;86.76
78170;BME280;67412;49.892;14.490;2023-10-31T10:11:56;95875.41;;;11.59;86.45
78170;BME280;67412;49.892;14.490;2023-10-31T10:14:25;95853.53;;;11.49;87.24
78170;BME280;67412;49.892;14.490;2023-10-31T10:16:53;95844.47;;;11.61;88.13
78170;BME280;67412;49.892;14.490;2023-10-31T10:19:21;95825.25;;;11.70;87.66
78170;BME280;67412;49.892;14.490;2023-10-31T10:21:56;95841.09;;;11.81;86.88
78170;BME280;67412;49.892;14.490;2023-10-31T10:24:22;95839.34;;;11.81;85.76
78170;BME280;67412;49.892;14.490;2023-10-31T10:26:48;95843.13;;;11.93;86.70
78170;BME280;67412;49.892;14.490;2023-10-31T10:29:14;95836.66;;;11.84;87.87
78170;BME280;67412;49.892;14.490;2023-10-31T10:31:40;95835.59;;;11.68;88.09
78170;BME280;67412;49.892;14.490;2023-10-31T10:34:08;95859.97;;;11.59;87.42
78170;BME280;67412;49.892;14.490;2023-10-31T10:36:34;95866.91;;;11.57;87.24
78170;BME280;67412;49.892;14.490;2023-10-31T10:39:00;95864.97;;;11.42;87.75
78170;BME280;67412;49.892;14.490;2023-10-31T10:41:26;95851.94;;;11.47;86.94
78170;BME280;67412;49.892;14.490;2023-10-31T10:43:57;95854.44;;;11.48;88.15
78170;BME280;67412;49.892;14.490;2023-10-31T10:46:28;95833.63;;;11.54;86.26
78170;BME280;67412;49.892;14.490;2023-10-31T10:48:59;95842.09;;;11.56;88.06
78170;BME280;67412;49.892;14.490;2023-10-31T10:51:29;95865.19;;;11.58;87.07
78170;BME280;67412;49.892;14.490;2023-10-31T10:54:00;95900.81;;;11.67;88.48
78170;BME280;67412;49.892;14.490;2023-10-31T10:56:30;95928.66;;;11.57;84.43
78170;BME280;67412;49.892;14.490;2023-10-31T10:59:03;95937.31;;;11.55;86.23
78170;BME280;67412;49.892;14.490;2023-10-31T11:01:30;95934.69;;;11.56;86.38
78170;BME280;67412;49.892;14.490;2023-10-31T11:03:56;95938.00;;;11.58;86.74
78170;BME280;67412;49.892;14.490;2023-10-31T11:06:23;95940.59;;;11.58;85.23
78170;BME280;67412;49.892;14.490;2023-10-31T11:08:49;95924.41;;;11.56;86.98
78170;BME280;67412;49.892;14.490;2023-10-31T11:11:19;95930.81;;;11.46;87.33
78170;BME280;67412;49.892;14.490;2023-10-31T11:13:45;95935.88;;;11.48;86.81
78170;BME280;67412;49.892;14.490;2023-10-31T11:16:18;95960.28;;;11.38;88.01
78170;BME280;67412;49.892;14.490;2023-10-31T11:18:46;95969.25;;;11.28;88.44
78170;BME280;67412;49.892;14.490;2023-10-31T11:21:11;95978.72;;;11.27;89.54
78170;BME280;67412;49.892;14.490;2023-10-31T11:23:36;95986.59;;;11.23;90.11
78170;BME280;67412;49.892;14.490;2023-10-31T11:26:02;95995.25;;;11.20;90.42
78170;BME280;67412;49.892;14.490;2023-10-31T11:28:27;95983.34;;;11.18;89.58
78170;BME280;67412;49.892;14.490;2023-10-31T11:30:53;95986.84;;;11.17;88.82
78170;BME280;67412;49.892;14.490;2023-10-31T11:33:24;95981.13;;;11.08;89.38
78170;BME280;67412;49.892;14.490;2023-10-31T11:36:03;95970.13;;;11.05;89.96
78170;BME280;67412;49.892;14.490;2023-10-31T11:38:34;95965.00;;;11.05;90.90
78170;BME280;67412;49.892;14.490;2023-10-31T11:41:01;95961.28;;;11.12;90.68
78170;BME280;67412;49.892;14.490;2023-10-31T11:43:55;95956.00;;;11.17;89.93
78170;BME280;67412;49.892;14.490;2023-10-31T11:46:23;95954.25;;;11.17;90.15
78170;BME280;67412;49.892;14.490;2023-10-31T11:48:53;95963.88;;;11.12;89.96
78170;BME280;67412;49.892;14.490;2023-10-31T11:51:23;95970.06;;;11.06;90.24
78170;BME280;67412;49.892;14.490;2023-10-31T11:53:48;95975.72;;;11.16;89.76
78170;BME280;67412;49.892;14.490;2023-10-31T11:56:18;95978.03;;;11.22;87.96
78170;BME280;67412;49.892;14.490;2023-10-31T11:58:43;95984.19;;;11.18;89.24
78170;BME280;67412;49.892;14.490;2023-10-31T12:01:10;95983.53;;;11.13;88.52
78170;BME280;67412;49.892;14.490;2023-10-31T12:03:40;95984.31;;;11.15;88.85
78170;BME280;67412;49.892;14.490;2023-10-31T12:06:06;95984.31;;;11.15;88.04
78170;BME280;67412;49.892;14.490;2023-10-31T12:08:35;95992.31;;;11.07;88.55
78170;BME280;67412;49.892;14.490;2023-10-31T12:11:08;96007.84;;;11.04;87.36
78170;BME280;67412;49.892;14.490;2023-10-31T12:13:42;96002.88;;;11.00;88.49
78170;BME280;67412;49.892;14.490;2023-10-31T12:16:16;95999.41;;;11.01;87.81
78170;BME280;67412;49.892;14.490;2023-10-31T12:18:41;95984.84;;;11.01;87.56
78170;BME280;67412;49.892;14.490;2023-10-31T12:21:07;95979.13;;;10.93;87.61
78170;BME280;67412;49.892;14.490;2023-10-31T12:23:33;95981.63;;;10.95;87.88
78170;BME280;67412;49.892;14.490;2023-10-31T12:25:58;95989.47;;;10.92;88.20
78170;BME280;67412;49.892;14.490;2023-10-31T12:28:25;95993.47;;;10.99;87.56
78170;BME280;67412;49.892;14.490;2023-10-31T12:30:52;95991.03;;;10.96;87.98
78170;BME280;67412;49.892;14.490;2023-10-31T12:33:25;95986.50;;;11.02;87.51
78170;BME280;67412;49.892;14.490;2023-10-31T12:35:52;95995.97;;;11.02;87.03